createdAt,value
2019-01-23T00:01:15.559Z,47.08
2019-01-23T00:03:41.609Z,47.07
2019-01-23T00:06:07.603Z,47.08
2019-01-23T00:08:33.635Z,47.02
2019-01-23T00:10:59.637Z,47.00
2019-01-23T00:13:25.631Z,47.00
2019-01-23T00:15:51.677Z,46.98
2019-01-23T00:18:17.674Z,46.97
2019-01-23T00:20:43.672Z,46.99
2019-01-23T00:23:09.722Z,46.96
2019-01-23T00:25:35.715Z,46.95
2019-01-23T00:28:01.707Z,46.93
2019-01-23T00:30:27.751Z,46.90
2019-01-23T00:32:53.753Z,46.89
2019-01-23T00:35:19.749Z,46.89
2019-01-23T00:37:45.784Z,46.85
2019-01-23T00:40:11.790Z,46.86
2019-01-23T00:42:37.844Z,46.84
2019-01-23T00:45:03.876Z,46.85
2019-01-23T00:47:29.915Z,46.81
2019-01-23T00:49:55.950Z,46.81
2019-01-23T00:52:21.968Z,46.79
2019-01-23T00:54:48.006Z,46.78
2019-01-23T00:57:13.998Z,46.79
2019-01-23T00:59:39.995Z,46.76
2019-01-23T01:02:06.028Z,46.75
2019-01-23T01:04:32.030Z,46.73
2019-01-23T01:06:58.059Z,46.73
2019-01-23T01:09:24.056Z,46.72
2019-01-23T01:11:50.062Z,46.68
2019-01-23T01:14:16.097Z,46.67
2019-01-23T01:16:42.143Z,46.67
2019-01-23T01:19:08.145Z,46.69
2019-01-23T01:21:36.418Z,46.67
2019-01-23T01:24:02.448Z,46.67
2019-01-23T01:26:28.446Z,46.65
2019-01-23T01:28:56.102Z,46.61
2019-01-23T01:31:20.484Z,46.64
2019-01-23T01:33:46.520Z,46.60
2019-01-23T01:36:12.516Z,46.60
2019-01-23T01:38:38.562Z,46.62
2019-01-23T01:41:04.600Z,46.59
2019-01-23T01:43:30.600Z,46.56
2019-01-23T01:45:56.642Z,46.58
2019-01-23T01:48:22.640Z,46.59
2019-01-23T01:50:48.642Z,46.57
2019-01-23T01:53:14.678Z,46.54
2019-01-23T01:55:40.677Z,46.52
2019-01-23T01:58:10.162Z,46.51
2019-01-23T02:00:32.716Z,46.55
2019-01-23T02:02:58.717Z,46.54
2019-01-23T02:05:24.758Z,46.54
2019-01-23T02:07:50.855Z,46.52
2019-01-23T02:10:16.851Z,46.51
2019-01-23T02:12:42.886Z,46.50
2019-01-23T02:15:08.878Z,46.48
2019-01-23T02:17:34.879Z,46.50
2019-01-23T02:20:00.909Z,46.50
2019-01-23T02:22:26.939Z,46.50
2019-01-23T02:24:52.937Z,46.52
2019-01-23T02:27:18.933Z,46.49
2019-01-23T02:29:44.968Z,46.50
2019-01-23T02:32:12.005Z,46.46
2019-01-23T02:34:38.025Z,46.48
2019-01-23T02:37:04.026Z,46.45
2019-01-23T02:39:30.062Z,46.47
2019-01-23T02:41:56.061Z,46.44
2019-01-23T02:44:22.057Z,46.45
2019-01-23T02:46:48.104Z,46.42
2019-01-23T02:49:14.140Z,46.44
2019-01-23T02:51:40.135Z,46.46
2019-01-23T02:54:06.183Z,46.43
2019-01-23T02:56:32.184Z,46.43
2019-01-23T02:58:58.179Z,46.41
2019-01-23T03:01:24.217Z,46.41
2019-01-23T03:03:50.214Z,46.42
2019-01-23T03:06:16.207Z,46.41
2019-01-23T03:08:42.243Z,46.41
2019-01-23T03:11:08.241Z,46.36
2019-01-23T03:13:34.284Z,46.37
2019-01-23T03:16:00.311Z,46.35
2019-01-23T03:18:26.276Z,46.37
2019-01-23T03:20:52.316Z,46.36
2019-01-23T03:23:18.310Z,46.35
2019-01-23T03:25:44.349Z,46.38
2019-01-23T03:28:10.339Z,46.36
2019-01-23T03:30:36.346Z,46.35
2019-01-23T03:33:02.372Z,46.35
2019-01-23T03:35:28.375Z,46.33
2019-01-23T03:37:54.415Z,46.33
2019-01-23T03:40:20.599Z,46.33
2019-01-23T03:42:46.598Z,46.32
2019-01-23T03:45:12.646Z,46.35
2019-01-23T03:47:38.674Z,46.31
2019-01-23T03:50:04.720Z,46.32
2019-01-23T03:52:30.733Z,46.29
2019-01-23T03:54:56.737Z,46.31
2019-01-23T03:57:22.781Z,46.29
2019-01-23T03:59:48.819Z,46.25
2019-01-23T04:02:14.820Z,46.22
2019-01-23T04:04:40.877Z,46.24
2019-01-23T04:07:06.918Z,46.29
2019-01-23T04:09:32.923Z,46.27
2019-01-23T04:11:58.957Z,46.28
2019-01-23T04:14:24.995Z,46.25
2019-01-23T04:16:50.992Z,46.28
2019-01-23T04:19:17.003Z,46.21
2019-01-23T04:21:43.321Z,46.24
2019-01-23T04:24:09.326Z,46.25
2019-01-23T04:26:35.365Z,46.24
2019-01-23T04:29:01.418Z,46.22
2019-01-23T04:31:28.342Z,46.23
2019-01-23T04:33:54.344Z,46.25
2019-01-23T04:36:20.393Z,46.23
2019-01-23T04:38:46.387Z,46.25
2019-01-23T04:41:12.448Z,46.11
2019-01-23T04:43:38.481Z,46.06
2019-01-23T04:46:04.484Z,45.89
2019-01-23T04:48:30.473Z,45.80
2019-01-23T04:50:56.512Z,45.72
2019-01-23T04:53:22.508Z,45.60
2019-01-23T04:55:48.507Z,45.51
2019-01-23T04:58:14.541Z,45.50
2019-01-23T05:00:40.578Z,45.41
2019-01-23T05:03:06.572Z,45.40
2019-01-23T05:05:32.616Z,45.34
2019-01-23T05:07:58.656Z,45.23
2019-01-23T05:10:24.653Z,45.33
2019-01-23T05:12:50.911Z,45.15
2019-01-23T05:15:16.952Z,45.22
2019-01-23T05:17:42.944Z,45.06
2019-01-23T05:20:08.971Z,45.05
2019-01-23T05:22:35.077Z,45.00
2019-01-23T05:25:01.020Z,45.00
2019-01-23T05:27:27.061Z,45.06
2019-01-23T05:29:55.074Z,45.19
2019-01-23T05:32:19.283Z,45.30
2019-01-23T05:34:45.284Z,45.48
2019-01-23T05:37:11.319Z,45.41
2019-01-23T05:39:37.362Z,45.59
2019-01-23T05:42:03.393Z,45.64
2019-01-23T05:44:29.396Z,45.85
2019-01-23T05:46:55.474Z,45.96
2019-01-23T05:49:21.547Z,46.17
2019-01-23T05:51:47.605Z,46.28
2019-01-23T05:54:13.598Z,46.31
2019-01-23T05:56:39.638Z,46.47
2019-01-23T05:59:05.641Z,46.50
2019-01-23T06:01:31.698Z,46.57
2019-01-23T06:03:57.723Z,46.58
2019-01-23T06:06:23.698Z,46.64
2019-01-23T06:08:49.732Z,46.68
2019-01-23T06:11:15.735Z,46.71
2019-01-23T06:13:41.788Z,46.74
2019-01-23T06:16:07.845Z,46.73
2019-01-23T06:18:33.847Z,46.71
2019-01-23T06:20:59.839Z,46.71
2019-01-23T06:23:25.883Z,46.72
2019-01-23T06:25:51.887Z,46.71
2019-01-23T06:28:17.881Z,46.71
2019-01-23T06:30:43.919Z,46.67
2019-01-23T06:33:09.920Z,46.62
2019-01-23T06:35:35.919Z,46.59
2019-01-23T06:38:01.981Z,46.56
2019-01-23T06:40:28.092Z,46.52
2019-01-23T06:42:54.094Z,46.47
2019-01-23T06:45:20.168Z,46.43
2019-01-23T06:47:46.197Z,46.40
2019-01-23T06:50:12.205Z,46.42
2019-01-23T06:52:38.247Z,46.53
2019-01-23T06:55:04.240Z,46.61
2019-01-23T06:57:30.260Z,46.88
2019-01-23T06:59:56.300Z,46.85
2019-01-23T07:02:22.300Z,46.90
2019-01-23T07:04:48.299Z,46.85
2019-01-23T07:07:14.336Z,46.85
2019-01-23T07:09:40.331Z,47.02
2019-01-23T07:12:07.074Z,47.18
2019-01-23T07:14:33.068Z,47.27
2019-01-23T07:16:59.075Z,47.45
2019-01-23T07:19:25.118Z,47.44
2019-01-23T07:21:51.111Z,47.54
2019-01-23T07:24:17.130Z,47.60
2019-01-23T07:26:44.769Z,47.66
2019-01-23T07:29:27.209Z,47.60
2019-01-23T07:31:53.382Z,47.63
2019-01-23T07:34:20.765Z,47.75
2019-01-23T07:36:45.492Z,47.92
2019-01-23T07:39:11.532Z,47.75
2019-01-23T07:41:38.694Z,47.95
2019-01-23T07:44:03.534Z,47.57
2019-01-23T07:46:30.357Z,47.46
2019-01-23T07:48:56.394Z,47.53
2019-01-23T07:51:22.669Z,48.28
2019-01-23T07:53:52.008Z,47.67
2019-01-23T07:56:20.029Z,47.69
2019-01-23T07:58:44.506Z,47.66
2019-01-23T08:01:10.711Z,47.72
2019-01-23T08:03:36.663Z,47.78
2019-01-23T08:06:02.776Z,47.75
2019-01-23T08:08:29.087Z,47.78
2019-01-23T08:10:55.062Z,47.79
2019-01-23T08:13:21.164Z,47.71
2019-01-23T08:15:47.297Z,47.75
2019-01-23T08:18:13.299Z,47.99
2019-01-23T08:20:39.398Z,48.24
2019-01-23T08:23:05.877Z,48.38
2019-01-23T08:25:31.886Z,48.21
2019-01-23T08:27:58.063Z,48.26
2019-01-23T08:30:24.454Z,49.00
2019-01-23T08:32:50.469Z,48.86
2019-01-23T08:35:16.472Z,49.00
2019-01-23T08:37:42.639Z,48.90
2019-01-23T08:40:08.649Z,48.87
2019-01-23T08:42:34.689Z,49.16
2019-01-23T08:45:00.685Z,48.94
2019-01-23T08:47:26.680Z,48.91
2019-01-23T08:49:52.726Z,48.78
2019-01-23T08:52:18.723Z,48.83
2019-01-23T08:54:44.721Z,48.62
2019-01-23T08:57:10.760Z,48.73
2019-01-23T08:59:36.835Z,48.54
2019-01-23T09:02:02.804Z,48.58
2019-01-23T09:04:28.836Z,48.52
2019-01-23T09:06:54.831Z,48.47
2019-01-23T09:09:20.828Z,48.53
2019-01-23T09:11:46.869Z,48.58
2019-01-23T09:14:12.897Z,48.72
2019-01-23T09:16:38.925Z,48.86
2019-01-23T09:19:05.060Z,49.01
2019-01-23T09:21:32.063Z,49.01
2019-01-23T09:23:58.061Z,48.98
2019-01-23T09:26:24.059Z,48.99
2019-01-23T09:28:50.613Z,48.85
2019-01-23T09:31:16.607Z,48.90
2019-01-23T09:33:42.606Z,49.11
2019-01-23T09:36:08.648Z,49.64
2019-01-23T09:38:35.891Z,48.80
2019-01-23T09:41:01.883Z,48.87
2019-01-23T09:43:27.931Z,48.81
2019-01-23T09:45:53.927Z,48.75
2019-01-23T09:48:19.951Z,48.64
2019-01-23T09:50:46.415Z,48.61
2019-01-23T09:53:12.410Z,48.56
2019-01-23T09:55:38.412Z,48.43
2019-01-23T09:58:04.545Z,48.41
2019-01-23T10:00:31.846Z,48.39
2019-01-23T10:02:56.549Z,48.45
2019-01-23T10:05:22.594Z,48.34
2019-01-23T10:07:48.596Z,48.35
2019-01-23T10:10:14.593Z,48.29
2019-01-23T10:12:40.650Z,48.21
2019-01-23T10:15:06.647Z,48.15
2019-01-23T10:17:32.646Z,48.17
2019-01-23T10:19:58.691Z,48.12
2019-01-23T10:22:24.689Z,48.17
2019-01-23T10:24:50.690Z,48.21
2019-01-23T10:27:16.730Z,48.21
2019-01-23T10:29:42.744Z,48.16
2019-01-23T10:32:08.735Z,48.20
2019-01-23T10:34:34.780Z,48.12
2019-01-23T10:37:00.778Z,48.06
2019-01-23T10:39:26.789Z,48.04
2019-01-23T10:41:52.833Z,48.00
2019-01-23T10:44:18.838Z,47.99
2019-01-23T10:46:44.839Z,47.90
2019-01-23T10:49:10.879Z,47.91
2019-01-23T10:51:36.900Z,47.83
2019-01-23T10:54:02.894Z,47.82
2019-01-23T10:56:28.940Z,47.77
2019-01-23T10:58:54.937Z,47.73
2019-01-23T11:01:20.932Z,47.70
2019-01-23T11:03:46.977Z,47.67
2019-01-23T11:06:12.975Z,47.66
2019-01-23T11:08:38.967Z,47.61
2019-01-23T11:11:05.023Z,47.59
2019-01-23T11:13:31.014Z,47.55
2019-01-23T11:15:57.650Z,47.52
2019-01-23T11:18:23.067Z,47.48
2019-01-23T11:20:49.058Z,47.44
2019-01-23T11:23:15.061Z,47.41
2019-01-23T11:25:41.112Z,47.39
2019-01-23T11:28:07.108Z,47.35
2019-01-23T11:30:33.107Z,47.33
2019-01-23T11:32:59.177Z,47.29
2019-01-23T11:35:25.186Z,47.22
2019-01-23T11:37:51.177Z,47.20
2019-01-23T11:40:17.241Z,47.18
2019-01-23T11:42:43.233Z,47.13
2019-01-23T11:45:09.231Z,47.11
2019-01-23T11:47:35.275Z,47.09
2019-01-23T11:50:01.272Z,47.09
2019-01-23T11:52:27.273Z,47.06
2019-01-23T11:54:53.306Z,47.03
2019-01-23T11:57:19.321Z,47.03
2019-01-23T11:59:45.303Z,47.00
2019-01-23T12:02:11.360Z,46.99
2019-01-23T12:04:37.361Z,46.96
2019-01-23T12:07:03.360Z,46.96
2019-01-23T12:09:29.417Z,46.94
2019-01-23T12:11:55.407Z,47.02
2019-01-23T12:14:21.526Z,47.02
2019-01-23T12:16:47.643Z,47.10
2019-01-23T12:19:13.646Z,47.13
2019-01-23T12:21:39.646Z,47.17
2019-01-23T12:24:05.733Z,47.22
2019-01-23T12:26:31.728Z,47.23
2019-01-23T12:28:57.723Z,47.23
2019-01-23T12:31:23.771Z,47.24
2019-01-23T12:33:49.768Z,47.29
2019-01-23T12:36:15.766Z,47.28
2019-01-23T12:38:41.819Z,47.29
2019-01-23T12:41:07.859Z,47.31
2019-01-23T12:43:33.851Z,47.34
2019-01-23T12:45:59.888Z,47.34
2019-01-23T12:48:25.879Z,47.33
2019-01-23T12:50:51.936Z,47.31
2019-01-23T12:53:17.932Z,47.41
2019-01-23T12:55:43.932Z,47.55
2019-01-23T12:58:09.975Z,47.56
2019-01-23T13:00:35.968Z,47.61
2019-01-23T13:03:01.988Z,47.48
2019-01-23T13:05:28.046Z,47.47
2019-01-23T13:07:54.040Z,47.48
2019-01-23T13:10:20.040Z,47.58
2019-01-23T13:12:46.132Z,47.49
2019-01-23T13:15:12.186Z,47.46
2019-01-23T13:17:38.196Z,47.49
2019-01-23T13:20:04.263Z,47.48
2019-01-23T13:22:30.263Z,47.47
2019-01-23T13:24:56.281Z,47.47
2019-01-23T13:27:22.315Z,47.52
2019-01-23T13:29:48.312Z,47.50
2019-01-23T13:32:14.304Z,47.49
2019-01-23T13:34:40.357Z,47.43
2019-01-23T13:37:06.357Z,47.54
2019-01-23T13:39:32.353Z,47.57
2019-01-23T13:41:58.429Z,47.57
2019-01-23T13:44:24.422Z,47.58
2019-01-23T13:46:50.423Z,47.58
2019-01-23T13:49:16.468Z,47.58
2019-01-23T13:51:42.471Z,47.59
2019-01-23T13:54:08.468Z,47.61
2019-01-23T13:56:34.502Z,47.66
2019-01-23T13:59:00.497Z,47.66
2019-01-23T14:01:26.487Z,47.69
2019-01-23T14:03:52.530Z,47.63
2019-01-23T14:06:18.528Z,47.68
2019-01-23T14:08:44.523Z,47.62
2019-01-23T14:11:10.558Z,47.68
2019-01-23T14:13:36.566Z,47.67
2019-01-23T14:16:02.566Z,47.62
2019-01-23T14:18:28.604Z,47.66
2019-01-23T14:20:54.595Z,47.74
2019-01-23T14:23:20.814Z,47.68
2019-01-23T14:25:46.628Z,47.67
2019-01-23T14:28:12.640Z,47.70
2019-01-23T14:30:38.638Z,47.82
2019-01-23T14:33:04.692Z,47.80
2019-01-23T14:35:30.686Z,47.74
2019-01-23T14:38:00.599Z,47.73
2019-01-23T14:40:22.723Z,47.69
2019-01-23T14:42:48.716Z,47.71
2019-01-23T14:45:14.715Z,47.71
2019-01-23T14:47:40.764Z,47.70
2019-01-23T14:50:06.774Z,47.75
2019-01-23T14:52:32.765Z,47.70
2019-01-23T14:54:58.803Z,47.67
2019-01-23T14:57:24.813Z,47.67
2019-01-23T14:59:50.810Z,47.66
2019-01-23T15:02:16.859Z,47.65
2019-01-23T15:04:42.850Z,47.67
2019-01-23T15:07:08.859Z,47.65
2019-01-23T15:09:34.900Z,47.67
2019-01-23T15:12:00.896Z,47.64
2019-01-23T15:14:26.891Z,47.62
2019-01-23T15:16:53.638Z,47.62
2019-01-23T15:19:18.935Z,47.58
2019-01-23T15:21:44.950Z,47.54
2019-01-23T15:24:10.978Z,47.46
2019-01-23T15:26:36.971Z,47.40
2019-01-23T15:29:03.005Z,47.34
2019-01-23T15:31:29.011Z,47.30
2019-01-23T15:33:55.014Z,47.27
2019-01-23T15:36:21.003Z,47.23
2019-01-23T15:38:47.937Z,47.22
2019-01-23T15:41:13.055Z,47.18
2019-01-23T15:43:39.054Z,47.17
2019-01-23T15:46:05.086Z,47.13
2019-01-23T15:48:31.170Z,47.12
2019-01-23T15:50:57.163Z,47.11
2019-01-23T15:53:23.242Z,47.08
2019-01-23T15:55:49.227Z,47.07
2019-01-23T15:58:15.224Z,47.05
2019-01-23T16:00:41.262Z,47.06
2019-01-23T16:03:07.255Z,47.01
2019-01-23T16:05:33.255Z,46.99
2019-01-23T16:07:59.575Z,46.93
2019-01-23T16:10:25.578Z,46.96
2019-01-23T16:12:51.577Z,46.94
2019-01-23T16:15:17.653Z,46.85
2019-01-23T16:17:43.651Z,46.85
2019-01-23T16:20:09.652Z,46.87
2019-01-23T16:22:35.698Z,46.82
2019-01-23T16:25:02.150Z,47.24
2019-01-23T16:27:27.704Z,47.22
2019-01-23T16:29:53.769Z,47.29
2019-01-23T16:32:19.768Z,47.33
2019-01-23T16:34:45.814Z,47.28
2019-01-23T16:37:11.864Z,47.34
2019-01-23T16:39:37.858Z,47.38
2019-01-23T16:42:03.857Z,47.41
2019-01-23T16:44:29.903Z,47.46
2019-01-23T16:46:55.909Z,47.45
2019-01-23T16:49:21.903Z,47.48
2019-01-23T16:51:51.379Z,47.51
2019-01-23T16:54:13.941Z,47.51
2019-01-23T16:56:39.934Z,47.45
2019-01-23T16:59:05.977Z,47.40
2019-01-23T17:01:31.975Z,47.46
2019-01-23T17:03:57.970Z,47.41
2019-01-23T17:06:24.152Z,47.42
2019-01-23T17:08:50.144Z,47.45
2019-01-23T17:11:16.181Z,47.53
2019-01-23T17:13:46.551Z,47.63
2019-01-23T17:16:20.935Z,47.64
2019-01-23T17:18:46.938Z,47.70
2019-01-23T17:21:13.292Z,47.67
2019-01-23T17:23:39.619Z,47.67
2019-01-23T17:26:05.620Z,47.66
2019-01-23T17:28:31.911Z,47.74
2019-01-23T17:30:57.897Z,48.02
2019-01-23T17:33:24.404Z,48.20
2019-01-23T17:35:53.797Z,48.11
2019-01-23T17:38:20.615Z,48.23
2019-01-23T17:41:02.081Z,48.26
2019-01-23T17:43:32.099Z,48.27
2019-01-23T17:45:58.103Z,48.27
2019-01-23T17:48:24.479Z,48.49
2019-01-23T17:50:52.285Z,48.73
2019-01-23T17:53:19.159Z,48.45
2019-01-23T17:55:47.266Z,48.49
2019-01-23T17:58:18.390Z,48.37
2019-01-23T18:00:46.256Z,48.31
2019-01-23T18:03:12.810Z,48.27
2019-01-23T18:05:39.686Z,48.25
2019-01-23T18:08:05.686Z,48.16
2019-01-23T18:10:33.143Z,48.17
2019-01-23T18:12:59.205Z,48.19
2019-01-23T18:15:25.526Z,48.13
2019-01-23T18:17:53.464Z,48.41
2019-01-23T18:20:20.529Z,48.45
2019-01-23T18:22:46.639Z,48.57
2019-01-23T18:25:14.086Z,48.57
2019-01-23T18:27:41.751Z,48.70
2019-01-23T18:30:08.234Z,48.61
2019-01-23T18:32:34.672Z,48.72
2019-01-23T18:35:00.898Z,48.66
2019-01-23T18:37:26.935Z,48.78
2019-01-23T18:39:53.800Z,48.85
2019-01-23T18:42:23.446Z,48.62
2019-01-23T18:44:49.666Z,48.73
2019-01-23T18:47:18.368Z,48.68
2019-01-23T18:49:46.177Z,48.57
2019-01-23T18:52:11.396Z,48.61
2019-01-23T18:54:41.053Z,48.58
2019-01-23T18:57:08.326Z,48.64
2019-01-23T18:59:35.209Z,48.50
2019-01-23T19:02:01.275Z,48.60
2019-01-23T19:04:29.913Z,48.71
2019-01-23T19:06:56.103Z,48.61
2019-01-23T19:09:22.381Z,48.76
2019-01-23T19:11:51.466Z,48.61
2019-01-23T19:14:24.270Z,48.67
2019-01-23T19:16:44.938Z,48.63
2019-01-23T19:19:11.137Z,48.65
2019-01-23T19:21:38.073Z,48.56
2019-01-23T19:24:05.030Z,48.59
2019-01-23T19:26:37.418Z,48.65
2019-01-23T19:29:03.628Z,48.66
2019-01-23T19:31:31.504Z,48.65
2019-01-23T19:33:58.110Z,48.59
2019-01-23T19:36:24.417Z,48.64
2019-01-23T19:38:50.761Z,48.54
2019-01-23T19:41:20.543Z,48.53
2019-01-23T19:43:45.190Z,48.44
2019-01-23T19:46:12.105Z,48.47
2019-01-23T19:48:38.422Z,48.44
2019-01-23T19:51:04.705Z,48.38
2019-01-23T19:53:31.400Z,48.36
2019-01-23T19:55:58.243Z,48.30
2019-01-23T19:58:25.147Z,48.28
2019-01-23T20:00:51.945Z,48.21
2019-01-23T20:03:20.542Z,48.20
2019-01-23T20:05:45.323Z,48.19
2019-01-23T20:08:14.097Z,48.11
2019-01-23T20:10:42.143Z,48.11
2019-01-23T20:13:08.292Z,48.09
2019-01-23T20:15:34.474Z,48.15
2019-01-23T20:18:00.586Z,48.33
2019-01-23T20:20:28.178Z,48.25
2019-01-23T20:22:54.277Z,48.27
2019-01-23T20:25:20.692Z,48.19
2019-01-23T20:27:46.845Z,48.21
2019-01-23T20:30:13.010Z,48.16
2019-01-23T20:32:39.044Z,48.09
2019-01-23T20:35:05.218Z,48.04
2019-01-23T20:37:31.722Z,48.07
2019-01-23T20:40:00.210Z,48.01
2019-01-23T20:42:26.116Z,47.93
2019-01-23T20:44:52.295Z,47.92
2019-01-23T20:47:18.340Z,47.86
2019-01-23T20:49:46.772Z,47.84
2019-01-23T20:52:13.002Z,47.79
2019-01-23T20:54:39.107Z,47.76
2019-01-23T20:57:07.115Z,47.77
2019-01-23T20:59:33.188Z,47.68
2019-01-23T21:01:59.227Z,47.68
2019-01-23T21:04:25.410Z,47.65
2019-01-23T21:06:51.462Z,47.63
2019-01-23T21:09:17.554Z,47.58
2019-01-23T21:11:43.959Z,47.53
2019-01-23T21:14:10.031Z,47.52
2019-01-23T21:16:36.056Z,47.47
2019-01-23T21:19:02.114Z,47.43
2019-01-23T21:21:28.684Z,47.39
2019-01-23T21:23:55.233Z,47.39
2019-01-23T21:26:21.268Z,47.35
2019-01-23T21:28:47.758Z,47.31
2019-01-23T21:31:13.924Z,47.31
2019-01-23T21:33:42.194Z,47.27
2019-01-23T21:36:06.206Z,47.22
2019-01-23T21:38:32.223Z,47.22
2019-01-23T21:40:58.738Z,47.19
2019-01-23T21:43:25.110Z,47.15
2019-01-23T21:45:51.300Z,47.14
2019-01-23T21:48:17.429Z,47.14
2019-01-23T21:50:43.472Z,47.15
2019-01-23T21:53:09.467Z,47.09
2019-01-23T21:55:35.469Z,47.10
2019-01-23T21:58:02.606Z,47.22
2019-01-23T22:00:28.598Z,47.41
2019-01-23T22:02:54.718Z,47.46
2019-01-23T22:05:20.759Z,47.44
2019-01-23T22:07:46.755Z,47.58
2019-01-23T22:10:12.753Z,47.53
2019-01-23T22:12:38.789Z,47.61
2019-01-23T22:15:04.782Z,47.63
2019-01-23T22:17:30.846Z,47.82
2019-01-23T22:19:56.838Z,47.67
2019-01-23T22:22:22.951Z,47.74
2019-01-23T22:24:48.882Z,47.75
2019-01-23T22:27:14.891Z,47.75
2019-01-23T22:29:40.918Z,47.75
2019-01-23T22:32:06.919Z,47.84
2019-01-23T22:34:32.956Z,47.78
2019-01-23T22:36:58.958Z,47.76
2019-01-23T22:39:24.952Z,47.84
2019-01-23T22:41:50.989Z,47.84
2019-01-23T22:44:17.090Z,47.84
2019-01-23T22:46:43.041Z,47.82
2019-01-23T22:49:09.080Z,47.88
2019-01-23T22:51:35.078Z,47.88
2019-01-23T22:54:01.075Z,47.98
2019-01-23T22:56:27.131Z,48.21
2019-01-23T22:58:53.129Z,48.00
2019-01-23T23:01:19.128Z,47.99
2019-01-23T23:03:45.166Z,48.28
2019-01-23T23:06:11.188Z,47.99
2019-01-23T23:08:37.254Z,48.10
2019-01-23T23:11:03.246Z,48.03
2019-01-23T23:13:29.252Z,47.94
2019-01-23T23:15:55.294Z,47.84
2019-01-23T23:18:21.282Z,47.82
2019-01-23T23:20:47.376Z,47.81
2019-01-23T23:23:13.403Z,47.77
2019-01-23T23:25:39.401Z,47.75
2019-01-23T23:28:05.395Z,47.73
2019-01-23T23:30:31.592Z,47.71
2019-01-23T23:32:57.591Z,47.70
2019-01-23T23:35:23.589Z,47.69
2019-01-23T23:37:49.637Z,47.66
2019-01-23T23:40:15.634Z,47.65
2019-01-23T23:42:41.644Z,47.64
2019-01-23T23:45:07.682Z,47.59
2019-01-23T23:47:33.862Z,47.64
2019-01-23T23:49:59.987Z,47.58
2019-01-23T23:52:26.020Z,47.58
2019-01-23T23:54:52.020Z,47.56
2019-01-23T23:57:18.051Z,47.53
2019-01-23T23:59:44.050Z,47.52
